Time;durP1;ratioP1;P1;durP2;ratioP2;P2;SDS_P1;SDS_P2;PMS_P1;PMS_P2;Temp;Humidity;BMP_temperature;BMP_pressure;BME280_temperature;BME280_humidity;BME280_pressure;Samples;Min_cycle;Max_cycle;Signal;HPM_P1;HPM_P2
2024/01/28 00:02:15;;;;;;;25.05;11.77;;;0.90;99.90;;;;;;5046484;28;20099;-69
2024/01/28 00:04:40;;;;;;;26.02;11.70;;;0.90;99.90;;;;;;5040216;28;20052;-70
2024/01/28 00:07:06;;;;;;;36.58;13.77;;;0.90;99.90;;;;;;5045254;28;20041;-70
2024/01/28 00:09:31;;;;;;;23.85;11.68;;;0.90;99.90;;;;;;5049960;28;20044;-68
2024/01/28 00:11:57;;;;;;;25.50;11.65;;;1.00;99.90;;;;;;5047036;28;20045;-68
2024/01/28 00:14:22;;;;;;;27.08;12.43;;;0.90;99.90;;;;;;5042885;28;20051;-68
2024/01/28 00:16:49;;;;;;;26.67;12.02;;;0.90;99.90;;;;;;5053365;28;20124;-68
2024/01/28 00:19:14;;;;;;;22.25;12.07;;;0.90;99.90;;;;;;5048028;28;20048;-68
2024/01/28 00:21:40;;;;;;;22.08;10.82;;;0.90;99.90;;;;;;5046025;28;20033;-67
2024/01/28 00:24:06;;;;;;;27.08;11.43;;;0.80;99.90;;;;;;5044535;28;20044;-67
2024/01/28 00:26:40;;;;;;;25.40;10.93;;;0.60;99.90;;;;;;5045711;28;20095;-68
2024/01/28 00:29:06;;;;;;;21.38;10.80;;;0.50;99.90;;;;;;5042345;28;20037;-67
2024/01/28 00:31:32;;;;;;;23.77;10.27;;;0.40;99.90;;;;;;5042031;28;20144;-67
2024/01/28 00:33:58;;;;;;;20.90;10.35;;;0.30;99.90;;;;;;5033161;28;20057;-68
2024/01/28 00:36:23;;;;;;;18.77;10.32;;;0.20;99.90;;;;;;5036958;28;20051;-67
2024/01/28 00:38:49;;;;;;;26.65;11.30;;;0.20;99.90;;;;;;5047077;28;20068;-67
2024/01/28 00:41:29;;;;;;;22.90;10.52;;;0.20;99.90;;;;;;5049021;28;20044;-68
2024/01/28 00:43:56;;;;;;;27.08;11.32;;;0.30;99.90;;;;;;5041466;28;20487;-68
2024/01/28 00:46:22;;;;;;;18.35;9.77;;;0.30;99.90;;;;;;5043812;28;20388;-67
2024/01/28 00:48:48;;;;;;;20.65;9.65;;;0.30;99.90;;;;;;5052745;28;20063;-68
2024/01/28 00:51:14;;;;;;;21.48;10.75;;;0.20;99.90;;;;;;5046424;28;20087;-69
2024/01/28 00:53:40;;;;;;;21.50;10.77;;;0.20;99.90;;;;;;5044231;28;20037;-68
2024/01/28 00:56:06;;;;;;;23.15;10.30;;;0.10;99.90;;;;;;5044724;28;20094;-68
2024/01/28 00:58:31;;;;;;;20.48;10.52;;;0.10;99.90;;;;;;5051573;28;20140;-68
2024/01/28 01:00:57;;;;;;;27.27;10.90;;;0.20;99.90;;;;;;5040707;28;20102;-68
2024/01/28 01:03:22;;;;;;;23.10;11.18;;;0.20;99.90;;;;;;5041149;28;20392;-67
2024/01/28 01:05:48;;;;;;;17.27;10.23;;;0.30;99.90;;;;;;5052532;28;20443;-67
2024/01/28 01:08:14;;;;;;;22.15;11.23;;;0.40;99.90;;;;;;5049117;28;20080;-67
2024/01/28 01:10:41;;;;;;;27.90;11.57;;;0.40;99.90;;;;;;5043969;28;20069;-68
2024/01/28 01:13:07;;;;;;;22.63;10.25;;;0.40;99.90;;;;;;5042881;28;20434;-67
2024/01/28 01:15:32;;;;;;;27.20;11.35;;;0.30;99.90;;;;;;5048734;28;20124;-68
2024/01/28 01:17:58;;;;;;;21.35;10.70;;;0.30;99.90;;;;;;5035948;28;20045;-68
2024/01/28 01:20:24;;;;;;;17.23;10.27;;;0.20;99.90;;;;;;5041509;28;20381;-67
2024/01/28 01:22:50;;;;;;;21.38;9.73;;;0.10;99.90;;;;;;5050098;28;20548;-68
2024/01/28 01:25:16;;;;;;;23.98;10.40;;;0.20;99.90;;;;;;5047443;28;20049;-69
2024/01/28 01:27:41;;;;;;;21.40;9.70;;;0.20;99.90;;;;;;5043636;28;20487;-68
2024/01/28 01:30:08;;;;;;;23.02;10.57;;;0.20;99.90;;;;;;5043860;28;20040;-67
2024/01/28 01:32:35;;;;;;;24.67;10.45;;;0.20;99.90;;;;;;5037284;28;20071;-69
2024/01/28 01:35:02;;;;;;;23.77;11.05;;;0.10;99.90;;;;;;5048608;28;20056;-69
2024/01/28 01:37:28;;;;;;;23.67;10.30;;;0.20;99.90;;;;;;5043342;28;20041;-68
2024/01/28 01:39:53;;;;;;;24.23;11.18;;;0.20;99.90;;;;;;5052009;28;20037;-69
2024/01/28 01:42:19;;;;;;;29.73;12.05;;;0.20;99.90;;;;;;5043398;28;20049;-69
2024/01/28 01:44:44;;;;;;;24.17;10.95;;;0.20;99.90;;;;;;5043722;28;20064;-69
2024/01/28 01:47:10;;;;;;;25.10;11.88;;;0.30;99.90;;;;;;5043578;28;20025;-68
2024/01/28 01:49:36;;;;;;;24.35;12.23;;;0.40;99.90;;;;;;5046077;28;20120;-69
2024/01/28 01:52:04;;;;;;;24.08;11.30;;;0.40;99.90;;;;;;5043332;28;20048;-68
2024/01/28 01:54:30;;;;;;;26.27;12.02;;;0.40;99.90;;;;;;5041807;28;20044;-69
2024/01/28 01:56:56;;;;;;;29.30;12.55;;;0.40;99.90;;;;;;5051847;28;20047;-69
2024/01/28 01:59:22;;;;;;;25.52;13.10;;;0.40;99.90;;;;;;5039334;28;20033;-69
2024/01/28 02:01:48;;;;;;;22.27;12.20;;;0.50;99.90;;;;;;5041793;28;20091;-69
2024/01/28 02:04:14;;;;;;;23.67;12.40;;;0.50;99.90;;;;;;5042489;28;20029;-69
2024/01/28 02:06:39;;;;;;;28.80;11.85;;;0.60;99.90;;;;;;5042143;28;20457;-69
2024/01/28 02:09:07;;;;;;;27.50;12.75;;;0.80;99.90;;;;;;5040785;28;20044;-69
2024/01/28 02:11:33;;;;;;;26.88;11.73;;;0.80;99.90;;;;;;5043094;28;20044;-69
2024/01/28 02:13:59;;;;;;;35.28;12.68;;;0.90;99.90;;;;;;5051067;28;20049;-68
2024/01/28 02:16:25;;;;;;;33.55;12.20;;;1.10;99.90;;;;;;5043185;28;20037;-69
2024/01/28 02:18:51;;;;;;;23.90;12.23;;;1.10;99.90;;;;;;5039255;28;20042;-68
2024/01/28 02:21:16;;;;;;;24.00;11.63;;;1.10;99.90;;;;;;5048089;28;20495;-70
2024/01/28 02:23:42;;;;;;;26.20;11.52;;;1.10;99.90;;;;;;5042679;28;20036;-69
2024/01/28 02:26:08;;;;;;;23.13;11.30;;;1.10;99.90;;;;;;5049562;28;20456;-69
2024/01/28 02:28:33;;;;;;;26.20;12.15;;;1.00;99.90;;;;;;5043035;28;20033;-67
2024/01/28 02:30:59;;;;;;;23.58;12.32;;;1.00;99.90;;;;;;5041330;28;20033;-67
2024/01/28 02:33:25;;;;;;;24.80;11.77;;;1.00;99.90;;;;;;5038557;28;20079;-67
2024/01/28 02:35:50;;;;;;;25.42;11.70;;;1.00;99.90;;;;;;5044362;28;20033;-67
2024/01/28 02:38:16;;;;;;;26.88;11.90;;;1.00;99.90;;;;;;5051027;28;20154;-66
2024/01/28 02:40:41;;;;;;;26.88;12.00;;;1.00;99.90;;;;;;5038693;28;20068;-67
2024/01/28 02:43:07;;;;;;;28.30;12.07;;;0.90;99.90;;;;;;5042328;28;20037;-67
2024/01/28 02:45:33;;;;;;;25.95;12.40;;;0.90;99.90;;;;;;5050248;28;20048;-67
2024/01/28 02:47:58;;;;;;;25.02;12.48;;;0.90;99.90;;;;;;5038537;28;20053;-67
2024/01/28 02:50:24;;;;;;;25.92;13.05;;;0.90;99.90;;;;;;5042598;28;20399;-67
2024/01/28 02:52:49;;;;;;;24.60;12.45;;;0.90;99.90;;;;;;5043798;28;20033;-67
2024/01/28 02:55:15;;;;;;;24.45;11.73;;;0.80;99.90;;;;;;5046695;28;20044;-67
2024/01/28 02:57:40;;;;;;;27.58;11.90;;;0.70;99.90;;;;;;5037835;28;20037;-67
2024/01/28 03:00:07;;;;;;;27.05;12.20;;;0.70;99.90;;;;;;5038479;28;20041;-66
2024/01/28 03:02:32;;;;;;;27.33;11.82;;;0.60;99.90;;;;;;5035936;28;20506;-67
2024/01/28 03:04:58;;;;;;;33.22;13.05;;;0.50;99.90;;;;;;5041639;28;20037;-67
2024/01/28 03:07:23;;;;;;;31.77;13.25;;;0.50;99.90;;;;;;5050052;28;20557;-67
2024/01/28 03:09:49;;;;;;;27.05;13.10;;;0.50;99.90;;;;;;5029268;28;20488;-67
2024/01/28 03:12:14;;;;;;;29.17;13.43;;;0.60;99.90;;;;;;5046330;28;20479;-66
2024/01/28 03:14:40;;;;;;;30.58;13.85;;;0.70;99.90;;;;;;5034162;28;20415;-67
2024/01/28 03:17:05;;;;;;;33.28;15.57;;;0.80;99.90;;;;;;5039019;28;20037;-67
2024/01/28 03:19:31;;;;;;;27.55;13.38;;;0.80;99.90;;;;;;5049289;28;20044;-67
2024/01/28 03:21:57;;;;;;;29.20;14.48;;;0.90;99.90;;;;;;5042869;28;20045;-66
2024/01/28 03:24:22;;;;;;;33.40;14.57;;;0.90;99.90;;;;;;5047512;28;20095;-67
2024/01/28 03:26:48;;;;;;;33.00;14.88;;;1.00;99.90;;;;;;5043355;28;20032;-66
2024/01/28 03:29:13;;;;;;;33.83;15.32;;;1.10;99.90;;;;;;5036948;28;20421;-67
2024/01/28 03:31:40;;;;;;;29.00;14.48;;;1.00;99.90;;;;;;5038083;28;20488;-67
2024/01/28 03:34:06;;;;;;;35.28;16.05;;;1.00;99.90;;;;;;5038511;28;20067;-66
2024/01/28 03:36:32;;;;;;;34.42;14.85;;;1.00;99.90;;;;;;5048284;28;20388;-66
2024/01/28 03:38:57;;;;;;;31.75;15.60;;;1.00;99.90;;;;;;5049014;28;20044;-67
2024/01/28 03:41:23;;;;;;;30.70;14.70;;;1.00;99.90;;;;;;5045922;28;20522;-66
2024/01/28 03:43:48;;;;;;;35.58;15.07;;;1.00;99.90;;;;;;5043285;28;20033;-66
2024/01/28 03:46:14;;;;;;;33.25;15.32;;;1.00;99.90;;;;;;5030667;28;20139;-66
2024/01/28 03:48:40;;;;;;;27.60;15.63;;;1.00;99.90;;;;;;5051318;28;20477;-65
2024/01/28 03:51:06;;;;;;;29.85;15.02;;;1.10;99.90;;;;;;5039978;28;20120;-66
2024/01/28 03:53:32;;;;;;;26.48;15.05;;;1.00;99.90;;;;;;5032689;28;20048;-67
2024/01/28 03:55:58;;;;;;;29.50;15.93;;;1.00;99.90;;;;;;5034135;28;20095;-66
2024/01/28 03:58:23;;;;;;;33.42;15.02;;;0.90;99.90;;;;;;5042962;28;20045;-67
2024/01/28 04:00:49;;;;;;;31.08;14.98;;;0.90;99.90;;;;;;5047474;28;20033;-66
2024/01/28 04:03:15;;;;;;;31.38;15.27;;;0.90;99.90;;;;;;5031325;28;20030;-66
2024/01/28 04:05:42;;;;;;;27.17;14.50;;;0.80;99.90;;;;;;5040714;28;20117;-66
2024/01/28 04:08:11;;;;;;;31.52;14.35;;;0.80;99.90;;;;;;5040582;28;20483;-67
2024/01/28 04:10:37;;;;;;;32.35;14.10;;;0.80;99.90;;;;;;5032428;28;20543;-66
2024/01/28 04:13:02;;;;;;;32.28;13.55;;;0.70;99.90;;;;;;5031433;28;20099;-66
2024/01/28 04:15:28;;;;;;;27.33;13.68;;;0.60;99.90;;;;;;5040023;28;20052;-68
2024/01/28 04:17:54;;;;;;;31.88;14.32;;;0.60;99.90;;;;;;5045051;28;20056;-66
2024/01/28 04:20:19;;;;;;;30.92;14.95;;;0.60;99.90;;;;;;5042839;28;20033;-66
2024/01/28 04:22:45;;;;;;;32.72;15.40;;;0.60;99.90;;;;;;5043342;28;20498;-66
2024/01/28 04:25:12;;;;;;;37.72;15.32;;;0.60;99.90;;;;;;5043961;28;20043;-66
2024/01/28 04:27:38;;;;;;;27.08;14.10;;;0.60;99.90;;;;;;5052540;28;20399;-65
2024/01/28 04:30:05;;;;;;;30.33;13.93;;;0.60;99.90;;;;;;5045129;28;20041;-65
2024/01/28 04:32:31;;;;;;;33.50;14.45;;;0.60;99.90;;;;;;5036857;28;20048;-67
2024/01/28 04:34:56;;;;;;;27.23;14.55;;;0.60;99.90;;;;;;5039272;28;20053;-65
2024/01/28 04:37:23;;;;;;;26.52;13.90;;;0.60;99.90;;;;;;5035222;28;20041;-65
2024/01/28 04:39:50;;;;;;;28.23;14.30;;;0.60;99.90;;;;;;5044724;28;20048;-66
2024/01/28 04:42:21;;;;;;;29.88;14.25;;;0.60;99.90;;;;;;5049683;28;20064;-66
2024/01/28 04:44:50;;;;;;;30.55;14.52;;;0.60;99.90;;;;;;5044615;28;20064;-67
2024/01/28 04:47:16;;;;;;;28.75;13.88;;;0.70;99.90;;;;;;5047472;28;20036;-67
2024/01/28 04:49:42;;;;;;;30.17;14.98;;;0.70;99.90;;;;;;5044971;28;20044;-67
2024/01/28 04:52:08;;;;;;;32.50;13.57;;;0.70;99.90;;;;;;5033154;28;20467;-67
2024/01/28 04:54:33;;;;;;;31.40;14.60;;;0.60;99.90;;;;;;5033972;28;20073;-66
2024/01/28 04:57:01;;;;;;;34.35;14.18;;;0.60;99.90;;;;;;5041012;28;20052;-67
2024/01/28 04:59:27;;;;;;;31.48;13.93;;;0.60;99.90;;;;;;5041554;28;20037;-67
2024/01/28 05:01:53;;;;;;;29.90;13.63;;;0.50;99.90;;;;;;5053114;28;20037;-67
2024/01/28 05:04:19;;;;;;;34.30;14.18;;;0.50;99.90;;;;;;5047932;28;20041;-67
2024/01/28 05:06:44;;;;;;;30.13;13.90;;;0.50;99.90;;;;;;5048503;28;20033;-67
2024/01/28 05:09:10;;;;;;;27.63;13.60;;;0.50;99.90;;;;;;5040650;28;20187;-67
2024/01/28 05:11:36;;;;;;;26.10;12.95;;;0.30;99.90;;;;;;5045975;28;20242;-67
2024/01/28 05:14:02;;;;;;;25.60;13.00;;;0.30;99.90;;;;;;5039946;28;20446;-67
2024/01/28 05:16:27;;;;;;;31.20;13.55;;;0.20;99.90;;;;;;5045179;28;20446;-67
2024/01/28 05:18:53;;;;;;;25.33;13.40;;;0.20;99.90;;;;;;5044544;28;20395;-67
2024/01/28 05:21:19;;;;;;;27.75;13.65;;;0.30;99.90;;;;;;5043157;28;20069;-67
2024/01/28 05:23:48;;;;;;;36.70;15.20;;;0.30;99.90;;;;;;5044510;28;20483;-67
2024/01/28 05:26:14;;;;;;;28.85;13.52;;;0.30;99.90;;;;;;5040594;28;20131;-67
2024/01/28 05:28:40;;;;;;;33.35;15.20;;;0.30;99.90;;;;;;5037225;28;20059;-67
2024/01/28 05:31:07;;;;;;;30.23;13.35;;;0.30;99.90;;;;;;5043943;28;20479;-67
2024/01/28 05:33:34;;;;;;;31.77;14.63;;;0.30;99.90;;;;;;5031106;28;20488;-67
2024/01/28 05:36:00;;;;;;;30.08;14.75;;;0.30;99.90;;;;;;5033298;28;20495;-67
2024/01/28 05:38:26;;;;;;;32.28;14.75;;;0.30;99.90;;;;;;5031718;28;20037;-67
2024/01/28 05:40:52;;;;;;;29.80;14.15;;;0.30;99.90;;;;;;5039840;28;20049;-67
2024/01/28 05:43:17;;;;;;;33.17;14.55;;;0.20;99.90;;;;;;5034318;28;20487;-67
2024/01/28 05:45:43;;;;;;;29.83;14.20;;;0.20;99.90;;;;;;5046051;28;20071;-67
2024/01/28 05:48:08;;;;;;;32.20;14.50;;;0.20;99.90;;;;;;5043672;28;20036;-67
2024/01/28 05:50:34;;;;;;;26.52;13.32;;;0.20;99.90;;;;;;5050739;28;20037;-67
2024/01/28 05:52:59;;;;;;;27.20;14.13;;;0.20;99.90;;;;;;5043142;28;20083;-68
2024/01/28 05:55:25;;;;;;;31.08;14.57;;;0.20;99.90;;;;;;5038897;28;20037;-67
2024/01/28 05:57:50;;;;;;;25.00;13.10;;;0.20;99.90;;;;;;5040305;28;20091;-65
2024/01/28 06:00:16;;;;;;;28.27;13.85;;;0.20;99.90;;;;;;5037123;28;20033;-66
2024/01/28 06:02:43;;;;;;;28.27;13.60;;;0.20;99.90;;;;;;5036223;28;20041;-66
2024/01/28 06:05:09;;;;;;;26.48;13.55;;;0.20;99.90;;;;;;5040694;28;20120;-65
2024/01/28 06:07:35;;;;;;;29.45;14.43;;;0.20;99.90;;;;;;5039039;28;20041;-65
2024/01/28 06:10:00;;;;;;;26.55;14.00;;;0.20;99.90;;;;;;5034610;28;20052;-65
2024/01/28 06:12:26;;;;;;;31.67;14.18;;;0.20;99.90;;;;;;5038040;28;20051;-65
2024/01/28 06:14:52;;;;;;;24.60;13.70;;;0.20;99.90;;;;;;5042279;28;20044;-65
2024/01/28 06:17:17;;;;;;;28.38;13.43;;;0.20;99.90;;;;;;5035464;28;20044;-65
2024/01/28 06:19:44;;;;;;;37.03;15.07;;;0.20;99.90;;;;;;5039927;28;20616;-65
2024/01/28 06:22:10;;;;;;;28.65;13.52;;;0.10;99.90;;;;;;5034883;28;20037;-66
2024/01/28 06:24:36;;;;;;;28.42;13.90;;;0.10;99.90;;;;;;5028994;28;20091;-66
2024/01/28 06:27:01;;;;;;;30.80;14.45;;;0.10;99.90;;;;;;5034925;28;20099;-65
2024/01/28 06:29:27;;;;;;;29.45;13.93;;;0.10;99.90;;;;;;5040838;28;20049;-65
2024/01/28 06:31:52;;;;;;;23.58;13.00;;;0.10;99.90;;;;;;5041492;28;20033;-66
2024/01/28 06:34:18;;;;;;;25.13;13.18;;;0.00;99.90;;;;;;5034204;28;20511;-66
2024/01/28 06:36:44;;;;;;;28.67;13.70;;;0.00;99.90;;;;;;5040728;28;20404;-65
2024/01/28 06:39:09;;;;;;;24.85;13.30;;;0.00;99.90;;;;;;5045703;28;20045;-66
2024/01/28 06:41:37;;;;;;;31.38;14.52;;;0.10;99.90;;;;;;5044553;28;20183;-65
2024/01/28 06:44:03;;;;;;;30.50;14.98;;;0.10;99.90;;;;;;5043840;28;20076;-65
2024/01/28 06:46:28;;;;;;;29.60;13.73;;;0.10;99.90;;;;;;5040533;28;20123;-66
2024/01/28 06:48:54;;;;;;;26.23;12.77;;;0.10;99.90;;;;;;5046277;28;20037;-65
2024/01/28 06:51:19;;;;;;;28.95;13.70;;;0.10;99.90;;;;;;5028625;28;20033;-65
2024/01/28 06:53:46;;;;;;;24.73;12.98;;;0.10;99.90;;;;;;5037915;28;20037;-66
2024/01/28 06:56:11;;;;;;;27.67;13.07;;;0.20;99.90;;;;;;5046161;28;20041;-67
2024/01/28 06:58:37;;;;;;;28.95;13.77;;;0.20;99.90;;;;;;5035225;28;20041;-66
2024/01/28 07:01:03;;;;;;;26.65;14.00;;;0.10;99.90;;;;;;5035651;28;20037;-67
2024/01/28 07:03:29;;;;;;;27.67;13.88;;;0.10;99.90;;;;;;5028753;28;20782;-64
2024/01/28 07:05:54;;;;;;;31.15;13.85;;;0.10;99.90;;;;;;5031267;28;20042;-64
2024/01/28 07:08:20;;;;;;;32.65;14.23;;;0.00;99.90;;;;;;5030361;28;20045;-67
2024/01/28 07:10:46;;;;;;;32.83;14.43;;;0.00;99.90;;;;;;5032083;28;20624;-67
2024/01/28 07:13:11;;;;;;;25.50;14.02;;;0.00;99.90;;;;;;5034558;28;20451;-65
2024/01/28 07:15:37;;;;;;;34.92;15.32;;;0.00;99.90;;;;;;5036358;28;20128;-65
2024/01/28 07:18:03;;;;;;;31.08;15.60;;;0.00;99.90;;;;;;5030417;28;20052;-66
2024/01/28 07:20:28;;;;;;;28.83;14.13;;;0.00;99.90;;;;;;5040266;28;20034;-66
2024/01/28 07:22:54;;;;;;;32.35;14.88;;;0.00;99.90;;;;;;5036665;28;20608;-66
2024/01/28 07:25:19;;;;;;;34.55;15.88;;;0.00;99.90;;;;;;5042701;28;20045;-65
2024/01/28 07:27:46;;;;;;;26.77;13.85;;;0.00;99.90;;;;;;5043873;28;20037;-66
2024/01/28 07:30:12;;;;;;;31.02;14.90;;;-0.10;99.90;;;;;;5041433;28;20376;-65
2024/01/28 07:32:38;;;;;;;32.90;14.82;;;-0.10;99.90;;;;;;5037021;28;20427;-66
2024/01/28 07:35:04;;;;;;;29.88;13.63;;;-0.10;99.90;;;;;;5043021;28;20103;-65
2024/01/28 07:37:30;;;;;;;28.85;13.18;;;-0.20;99.90;;;;;;5041072;28;20041;-66
2024/01/28 07:39:55;;;;;;;27.02;13.77;;;-0.10;99.90;;;;;;5039737;28;20063;-65
2024/01/28 07:42:21;;;;;;;25.83;13.20;;;-0.10;99.90;;;;;;5040022;28;20049;-68
2024/01/28 07:44:46;;;;;;;26.60;13.82;;;-0.10;99.90;;;;;;5042064;28;20053;-69
2024/01/28 07:47:12;;;;;;;30.45;13.30;;;-0.10;99.90;;;;;;5041299;28;20071;-66
2024/01/28 07:49:37;;;;;;;30.83;13.32;;;-0.10;99.90;;;;;;5042372;28;20045;-67
2024/01/28 07:52:03;;;;;;;24.80;12.27;;;-0.10;99.90;;;;;;5040140;28;20040;-66
2024/01/28 07:54:28;;;;;;;30.25;12.90;;;0.00;99.90;;;;;;5027343;28;20046;-66
2024/01/28 07:56:55;;;;;;;26.92;12.57;;;0.00;99.90;;;;;;5040823;28;20056;-67
2024/01/28 07:59:21;;;;;;;27.65;12.82;;;0.00;99.90;;;;;;5049090;28;20400;-66
2024/01/28 08:01:47;;;;;;;23.15;12.13;;;0.10;99.90;;;;;;5046303;28;20047;-65
2024/01/28 08:04:12;;;;;;;25.67;12.15;;;0.10;99.90;;;;;;5052881;28;20487;-66
2024/01/28 08:06:38;;;;;;;21.42;11.32;;;0.20;99.90;;;;;;5042687;28;20040;-67
2024/01/28 08:09:03;;;;;;;24.58;12.20;;;0.20;99.90;;;;;;5041610;28;20435;-67
2024/01/28 08:11:29;;;;;;;27.08;12.20;;;0.30;99.90;;;;;;5051597;28;20549;-67
2024/01/28 08:13:54;;;;;;;22.63;12.32;;;0.30;99.90;;;;;;5042054;28;20475;-67
2024/01/28 08:16:20;;;;;;;28.80;12.30;;;0.40;99.90;;;;;;5044599;28;20735;-67
2024/01/28 08:18:46;;;;;;;30.75;12.75;;;0.50;99.90;;;;;;5045461;28;20033;-68
2024/01/28 08:21:12;;;;;;;34.17;12.63;;;0.50;99.90;;;;;;5043030;28;20045;-65
2024/01/28 08:23:37;;;;;;;24.30;12.15;;;0.60;99.90;;;;;;5033753;28;20041;-65
2024/01/28 08:26:03;;;;;;;25.33;11.63;;;0.60;99.90;;;;;;5039813;28;20041;-67
2024/01/28 08:28:29;;;;;;;25.10;12.27;;;0.70;99.90;;;;;;5049441;28;20115;-65
2024/01/28 08:30:54;;;;;;;18.65;10.75;;;0.70;99.90;;;;;;5029209;28;20040;-65
2024/01/28 08:33:20;;;;;;;21.27;11.30;;;0.70;99.90;;;;;;5033242;28;20052;-66
2024/01/28 08:35:45;;;;;;;28.70;11.80;;;0.80;99.90;;;;;;5044389;28;20036;-66
2024/01/28 08:38:11;;;;;;;23.10;11.60;;;0.80;99.90;;;;;;5050547;28;20433;-68
2024/01/28 08:40:38;;;;;;;23.15;11.45;;;0.90;99.90;;;;;;5046730;28;20589;-66
2024/01/28 08:43:05;;;;;;;21.35;10.32;;;0.90;99.90;;;;;;5041220;28;20128;-67
2024/01/28 08:45:31;;;;;;;25.30;10.75;;;1.00;99.90;;;;;;5041229;28;20087;-67
2024/01/28 08:47:56;;;;;;;24.38;10.60;;;1.00;99.90;;;;;;5036750;28;20067;-68
2024/01/28 08:50:23;;;;;;;29.05;11.63;;;1.10;99.90;;;;;;5039882;28;20128;-66
2024/01/28 08:52:51;;;;;;;22.50;10.70;;;1.20;99.90;;;;;;5051494;28;20048;-67
2024/01/28 08:55:16;;;;;;;26.02;10.50;;;1.30;99.90;;;;;;5044727;28;20041;-67
2024/01/28 08:57:42;;;;;;;20.88;10.63;;;1.40;99.90;;;;;;5041378;28;20034;-65
2024/01/28 09:00:11;;;;;;;21.80;10.48;;;1.40;99.90;;;;;;5040765;28;20057;-66
2024/01/28 09:02:40;;;;;;;19.13;10.82;;;1.50;99.90;;;;;;5030829;28;20033;-66
2024/01/28 09:05:07;;;;;;;19.75;10.10;;;1.50;99.90;;;;;;5046638;28;20472;-67
2024/01/28 09:07:34;;;;;;;21.00;9.63;;;1.60;99.90;;;;;;5049097;28;20490;-65
2024/01/28 09:10:00;;;;;;;21.63;10.38;;;1.60;99.90;;;;;;5028717;28;20045;-66
2024/01/28 09:12:25;;;;;;;17.35;9.23;;;1.70;99.90;;;;;;5038373;28;20041;-65
2024/01/28 09:14:51;;;;;;;20.52;10.55;;;1.70;99.90;;;;;;5044130;28;20376;-66
2024/01/28 09:17:17;;;;;;;22.20;10.18;;;1.80;99.90;;;;;;5052819;28;20047;-67
2024/01/28 09:19:42;;;;;;;19.85;9.88;;;1.80;99.90;;;;;;5047924;28;20029;-66
2024/01/28 09:22:08;;;;;;;22.33;10.60;;;1.80;99.90;;;;;;5037159;28;20562;-67
2024/01/28 09:24:33;;;;;;;19.45;10.18;;;1.90;99.90;;;;;;5042666;28;20488;-67
2024/01/28 09:27:01;;;;;;;19.45;9.35;;;1.90;99.90;;;;;;5051392;28;20525;-67
2024/01/28 09:29:27;;;;;;;18.52;9.43;;;2.00;99.90;;;;;;5043588;28;20052;-67
2024/01/28 09:31:53;;;;;;;17.95;9.38;;;2.10;99.90;;;;;;5037884;28;20065;-68
2024/01/28 09:34:19;;;;;;;22.45;9.80;;;2.10;99.90;;;;;;5039756;28;20048;-66
2024/01/28 09:36:44;;;;;;;22.10;9.80;;;2.20;99.90;;;;;;5031180;28;20032;-67
2024/01/28 09:39:13;;;;;;;17.92;9.20;;;2.20;99.90;;;;;;5044180;28;20041;-65
2024/01/28 09:42:09;;;;;;;19.77;9.60;;;2.30;99.90;;;;;;5042437;28;20072;-66
2024/01/28 09:44:35;;;;;;;21.13;10.13;;;2.40;99.90;;;;;;5049916;28;20052;-66
2024/01/28 09:47:01;;;;;;;16.27;9.38;;;2.40;99.90;;;;;;5037550;28;20515;-65
2024/01/28 09:49:27;;;;;;;20.45;9.32;;;2.50;99.90;;;;;;5037524;28;20036;-66
2024/01/28 09:51:53;;;;;;;21.23;9.75;;;2.60;99.90;;;;;;5043288;28;20075;-66
2024/01/28 09:54:19;;;;;;;16.83;8.52;;;2.60;99.90;;;;;;5034616;28;20069;-65
2024/01/28 09:56:45;;;;;;;18.20;9.35;;;2.70;99.90;;;;;;5043031;28;20034;-66
2024/01/28 09:59:13;;;;;;;16.27;9.30;;;2.70;99.90;;;;;;5047582;28;20036;-65
2024/01/28 10:01:41;;;;;;;18.70;9.00;;;2.80;99.90;;;;;;5048668;28;20043;-68
2024/01/28 10:04:07;;;;;;;19.63;9.30;;;2.90;99.90;;;;;;5044306;28;20080;-67
2024/01/28 10:06:33;;;;;;;19.67;8.82;;;3.00;99.90;;;;;;5042394;28;20080;-66
2024/01/28 10:08:58;;;;;;;17.63;8.93;;;3.00;99.90;;;;;;5050712;28;20044;-67
2024/01/28 10:11:24;;;;;;;18.17;7.97;;;3.10;99.90;;;;;;5031862;28;20041;-68
2024/01/28 10:13:50;;;;;;;20.15;8.77;;;3.20;99.90;;;;;;5024788;28;20045;-67
2024/01/28 10:16:24;;;;;;;16.80;7.95;;;3.30;99.90;;;;;;5042001;28;20105;-67
2024/01/28 10:18:50;;;;;;;17.73;8.82;;;3.40;99.90;;;;;;5041692;28;20403;-68
2024/01/28 10:21:16;;;;;;;14.02;8.35;;;3.40;99.90;;;;;;5051545;28;20047;-68
2024/01/28 10:23:43;;;;;;;13.57;8.15;;;3.50;99.90;;;;;;5036115;28;20033;-67
2024/01/28 10:26:09;;;;;;;14.93;8.80;;;3.60;99.90;;;;;;5037443;28;20449;-67
2024/01/28 10:28:38;;;;;;;17.75;8.05;;;3.70;99.90;;;;;;5040596;28;20037;-66
2024/01/28 10:31:03;;;;;;;17.45;8.13;;;3.70;99.90;;;;;;5041756;28;20099;-66
2024/01/28 10:33:29;;;;;;;17.02;7.90;;;3.80;99.90;;;;;;5030330;28;20049;-66
2024/01/28 10:35:59;;;;;;;15.13;7.75;;;3.80;99.90;;;;;;5042423;28;20037;-67
2024/01/28 10:38:25;;;;;;;15.77;8.10;;;3.90;99.90;;;;;;5048899;28;20076;-68
2024/01/28 10:40:51;;;;;;;15.90;7.97;;;4.00;99.90;;;;;;5042102;28;20038;-67
2024/01/28 10:43:26;;;;;;;14.07;7.07;;;4.00;99.90;;;;;;5041649;28;20411;-67
2024/01/28 10:45:55;;;;;;;13.80;7.60;;;4.10;99.90;;;;;;5032926;28;20492;-68
2024/01/28 10:48:23;;;;;;;15.82;7.60;;;4.20;99.90;;;;;;5043249;28;20048;-68
2024/01/28 10:50:51;;;;;;;16.95;7.93;;;4.20;99.90;;;;;;5037561;28;20040;-68
2024/01/28 10:53:18;;;;;;;14.68;7.47;;;4.30;99.90;;;;;;5039388;28;20472;-66
2024/01/28 10:55:44;;;;;;;15.65;8.00;;;4.40;99.90;;;;;;5041619;28;20069;-67
2024/01/28 10:58:11;;;;;;;15.15;8.10;;;4.40;99.90;;;;;;5037630;28;20082;-65
2024/01/28 11:00:38;;;;;;;12.43;7.28;;;4.50;99.90;;;;;;5039224;28;20076;-66
2024/01/28 11:03:07;;;;;;;12.65;7.32;;;4.60;99.90;;;;;;5042050;28;20534;-66
2024/01/28 11:05:35;;;;;;;16.60;8.00;;;4.70;99.90;;;;;;5044576;28;20033;-66
2024/01/28 11:08:00;;;;;;;15.52;7.30;;;4.80;99.90;;;;;;5052390;28;20479;-66
2024/01/28 11:10:28;;;;;;;14.05;7.38;;;4.80;99.90;;;;;;5049298;28;20136;-66
2024/01/28 11:12:54;;;;;;;12.65;7.15;;;4.90;99.90;;;;;;5038013;28;20120;-66
2024/01/28 11:15:20;;;;;;;15.32;7.55;;;5.00;99.90;;;;;;5042060;28;20618;-66
2024/01/28 11:17:47;;;;;;;16.67;7.75;;;5.10;99.90;;;;;;5039310;28;20044;-66
2024/01/28 11:20:16;;;;;;;15.32;7.03;;;5.10;99.90;;;;;;5040062;28;20037;-67
2024/01/28 11:22:45;;;;;;;15.43;7.05;;;5.20;99.90;;;;;;5032713;28;20113;-67
2024/01/28 11:25:11;;;;;;;14.50;7.05;;;5.30;99.90;;;;;;5039529;28;20084;-68
2024/01/28 11:27:40;;;;;;;12.48;7.00;;;5.40;99.90;;;;;;5038302;28;20072;-68
2024/01/28 11:30:10;;;;;;;13.00;6.45;;;5.40;99.90;;;;;;5043197;28;20037;-68
2024/01/28 11:32:36;;;;;;;11.40;6.68;;;5.50;99.90;;;;;;5043718;28;20166;-68
2024/01/28 11:35:03;;;;;;;13.38;6.30;;;5.60;99.90;;;;;;5044110;28;20471;-68
2024/01/28 11:37:29;;;;;;;12.48;6.07;;;5.70;99.90;;;;;;5041722;28;20504;-68
2024/01/28 11:40:04;;;;;;;13.75;6.10;;;5.70;99.90;;;;;;5039170;28;20094;-68
2024/01/28 11:42:30;;;;;;;11.23;6.63;;;5.80;99.90;;;;;;5040241;28;20120;-67
2024/01/28 11:44:56;;;;;;;11.57;5.97;;;5.90;99.90;;;;;;5041394;28;20116;-67
2024/01/28 11:47:21;;;;;;;11.75;5.95;;;5.90;99.90;;;;;;5043826;28;20131;-68
2024/01/28 11:49:48;;;;;;;11.15;6.25;;;6.00;99.90;;;;;;5036890;28;20045;-67
2024/01/28 11:52:15;;;;;;;13.20;5.82;;;6.00;99.90;;;;;;5041255;28;20083;-65
2024/01/28 11:54:43;;;;;;;11.95;5.68;;;6.10;99.90;;;;;;5038727;28;20052;-68
2024/01/28 11:57:09;;;;;;;13.50;5.95;;;6.10;99.90;;;;;;5040337;28;20065;-66
2024/01/28 11:59:35;;;;;;;14.20;5.88;;;6.20;99.90;;;;;;5036713;28;20076;-66
2024/01/28 12:02:02;;;;;;;14.20;6.05;;;6.20;99.90;;;;;;5043511;28;20041;-67
2024/01/28 12:04:27;;;;;;;10.48;5.43;;;6.20;99.90;;;;;;5038330;28;20029;-66
2024/01/28 12:06:53;;;;;;;12.55;5.70;;;6.20;99.90;;;;;;5040351;28;20033;-67
2024/01/28 12:09:19;;;;;;;10.43;5.30;;;6.20;99.90;;;;;;5040223;28;20041;-65
2024/01/28 12:11:45;;;;;;;12.18;5.60;;;6.10;99.90;;;;;;5040829;28;20376;-67
2024/01/28 12:14:10;;;;;;;10.43;5.45;;;6.00;99.90;;;;;;5036256;28;20048;-67
2024/01/28 12:16:36;;;;;;;9.30;5.45;;;6.00;99.90;;;;;;5037114;28;20037;-67
2024/01/28 12:19:01;;;;;;;10.38;5.30;;;6.10;99.90;;;;;;5042165;28;20037;-66
2024/01/28 12:21:27;;;;;;;10.35;5.53;;;6.20;99.90;;;;;;5037527;28;20049;-67
2024/01/28 12:23:59;;;;;;;13.18;5.25;;;6.30;99.90;;;;;;5030772;28;20033;-65
2024/01/28 12:26:25;;;;;;;;;;;6.40;99.90;;;;;;5049447;28;20499;-65
2024/01/28 12:28:52;;;;;;;11.48;4.88;;;6.50;99.90;;;;;;5046847;28;19921;-66
2024/01/28 12:31:19;;;;;;;9.63;5.00;;;6.60;99.90;;;;;;5048086;28;20044;-65
2024/01/28 12:33:45;;;;;;;13.02;5.15;;;6.70;99.90;;;;;;5043747;28;20483;-67
2024/01/28 12:36:11;;;;;;;9.82;5.20;;;6.80;99.90;;;;;;5051960;28;20087;-67